Hauptseite
METAR-TAF:

METAR-TAF

Flughäfen :

Plzeň, Tschechien

Breite: 49-40-31N, Länge: 13-16-29E, Höhe: 362 m

Beobachtung

Neuester Wetterbericht von vor 1 Stunde und 12 Minuten, um 04:00 UTC
Windstille
Temperatur 6°C
Luftfeuchtigkeit 93%
Luftdruck 1028 hPa
Sichtweite: 2200 m
Leicht bewölkt in der Höhe von 200 ft
Geschlossene Wolkendecke in der Höhe von 500 ft
feuchter Dunst

METAR: LKLN 070400Z AUTO 00000KT 2200 BR FEW002 OVC005 06/05 Q1028

Zeit: 07:12 (05:12 UTC)


TAF: fehlend

Wetterbeobachtungen und Prognosen von mehr als 4000 Flughäfen (METAR und TAF Bericht).

Die verfügbaren Stationen werden durch gelbe und rote Markierungen auf der Karte dargestellt.

Führen Sie die Maus auf sie, um den Namen der Station zu sehen.

Darauf klicken, um die Beobachtung von Wetterbeobachtungen und Prognosen zu sehen.

Um die Karte zu ändern : klicken Sie auf den grünen Tasten mit einem schwarzen Kreuz Zum Vergrößern, auf den grünen Button mit einem Gedankenstrich zu verkleinern, oder auf die grünen Pfeile für benachbarte Karten.


METAR-TAF: